sensor_id;sensor_type;location;lat;lon;timestamp;P1;durP1;ratioP1;P2;durP2;ratioP2
49556;SDS011;35462;45.048;7.666;2023-05-14T00:06:27;5.57;;;4.25;;
49556;SDS011;35462;45.048;7.666;2023-05-14T00:21:32;6.13;;;4.60;;
49556;SDS011;35462;45.048;7.666;2023-05-14T00:36:35;5.95;;;5.03;;
49556;SDS011;35462;45.048;7.666;2023-05-14T00:51:39;6.60;;;5.07;;
49556;SDS011;35462;45.048;7.666;2023-05-14T01:21:54;4.28;;;3.00;;
49556;SDS011;35462;45.048;7.666;2023-05-14T01:36:58;4.03;;;2.30;;
49556;SDS011;35462;45.048;7.666;2023-05-14T01:52:03;2.10;;;1.42;;
49556;SDS011;35462;45.048;7.666;2023-05-14T02:07:08;2.95;;;1.52;;
49556;SDS011;35462;45.048;7.666;2023-05-14T02:22:12;1.67;;;1.25;;
49556;SDS011;35462;45.048;7.666;2023-05-14T02:37:16;3.63;;;1.75;;
49556;SDS011;35462;45.048;7.666;2023-05-14T02:52:20;3.58;;;2.00;;
49556;SDS011;35462;45.048;7.666;2023-05-14T03:07:23;6.25;;;2.70;;
49556;SDS011;35462;45.048;7.666;2023-05-14T03:22:27;2.60;;;2.03;;
49556;SDS011;35462;45.048;7.666;2023-05-14T03:37:31;3.28;;;2.15;;
49556;SDS011;35462;45.048;7.666;2023-05-14T03:52:35;2.78;;;1.92;;
49556;SDS011;35462;45.048;7.666;2023-05-14T04:07:39;2.03;;;1.38;;
49556;SDS011;35462;45.048;7.666;2023-05-14T04:22:43;3.03;;;2.10;;
49556;SDS011;35462;45.048;7.666;2023-05-14T04:37:47;3.92;;;1.88;;
49556;SDS011;35462;45.048;7.666;2023-05-14T04:52:51;3.55;;;1.98;;
49556;SDS011;35462;45.048;7.666;2023-05-14T05:07:55;3.75;;;2.83;;
49556;SDS011;35462;45.048;7.666;2023-05-14T05:22:59;3.17;;;2.10;;
49556;SDS011;35462;45.048;7.666;2023-05-14T05:38:03;3.33;;;2.28;;
49556;SDS011;35462;45.048;7.666;2023-05-14T05:53:07;3.90;;;1.95;;
49556;SDS011;35462;45.048;7.666;2023-05-14T06:08:10;2.35;;;1.33;;
49556;SDS011;35462;45.048;7.666;2023-05-14T06:23:14;1.55;;;0.93;;
49556;SDS011;35462;45.048;7.666;2023-05-14T06:38:18;2.85;;;1.20;;
49556;SDS011;35462;45.048;7.666;2023-05-14T06:53:22;2.33;;;1.33;;
49556;SDS011;35462;45.048;7.666;2023-05-14T07:08:26;1.95;;;1.15;;
49556;SDS011;35462;45.048;7.666;2023-05-14T07:23:30;2.20;;;1.50;;
49556;SDS011;35462;45.048;7.666;2023-05-14T07:38:36;4.07;;;1.65;;
49556;SDS011;35462;45.048;7.666;2023-05-14T07:53:40;2.70;;;1.42;;
49556;SDS011;35462;45.048;7.666;2023-05-14T08:08:44;4.85;;;2.58;;
49556;SDS011;35462;45.048;7.666;2023-05-14T08:23:49;3.90;;;2.15;;
49556;SDS011;35462;45.048;7.666;2023-05-14T08:38:53;4.07;;;1.85;;
49556;SDS011;35462;45.048;7.666;2023-05-14T08:53:57;2.97;;;1.75;;
49556;SDS011;35462;45.048;7.666;2023-05-14T09:09:04;1.93;;;1.33;;
49556;SDS011;35462;45.048;7.666;2023-05-14T09:24:09;3.00;;;2.25;;
49556;SDS011;35462;45.048;7.666;2023-05-14T09:39:22;3.03;;;1.98;;
49556;SDS011;35462;45.048;7.666;2023-05-14T09:54:27;2.47;;;1.00;;
49556;SDS011;35462;45.048;7.666;2023-05-14T10:09:31;1.30;;;0.70;;
49556;SDS011;35462;45.048;7.666;2023-05-14T10:24:35;2.08;;;0.90;;
49556;SDS011;35462;45.048;7.666;2023-05-14T11:09:57;0.50;;;0.30;;
49556;SDS011;35462;45.048;7.666;2023-05-14T11:25:04;1.15;;;0.30;;
49556;SDS011;35462;45.048;7.666;2023-05-14T11:40:13;0.88;;;0.40;;
49556;SDS011;35462;45.048;7.666;2023-05-14T11:55:18;0.47;;;0.35;;
49556;SDS011;35462;45.048;7.666;2023-05-14T12:10:24;0.60;;;0.30;;
49556;SDS011;35462;45.048;7.666;2023-05-14T12:25:28;3.67;;;0.73;;
49556;SDS011;35462;45.048;7.666;2023-05-14T12:40:32;1.48;;;0.50;;
49556;SDS011;35462;45.048;7.666;2023-05-14T12:55:36;1.15;;;0.50;;
49556;SDS011;35462;45.048;7.666;2023-05-14T13:10:40;1.30;;;0.65;;
49556;SDS011;35462;45.048;7.666;2023-05-14T13:25:44;1.10;;;0.60;;
49556;SDS011;35462;45.048;7.666;2023-05-14T13:40:48;1.08;;;0.30;;
49556;SDS011;35462;45.048;7.666;2023-05-14T13:55:52;0.90;;;0.40;;
49556;SDS011;35462;45.048;7.666;2023-05-14T14:10:59;1.00;;;0.47;;
49556;SDS011;35462;45.048;7.666;2023-05-14T14:26:03;1.38;;;0.43;;
49556;SDS011;35462;45.048;7.666;2023-05-14T14:41:07;1.58;;;0.40;;
49556;SDS011;35462;45.048;7.666;2023-05-14T14:56:12;0.95;;;0.40;;
49556;SDS011;35462;45.048;7.666;2023-05-14T15:11:16;0.73;;;0.45;;
49556;SDS011;35462;45.048;7.666;2023-05-14T15:26:20;2.28;;;0.47;;
49556;SDS011;35462;45.048;7.666;2023-05-14T15:41:25;1.27;;;0.32;;
49556;SDS011;35462;45.048;7.666;2023-05-14T15:56:31;1.13;;;0.40;;
49556;SDS011;35462;45.048;7.666;2023-05-14T16:11:35;1.23;;;0.82;;
49556;SDS011;35462;45.048;7.666;2023-05-14T16:26:39;0.63;;;0.28;;
49556;SDS011;35462;45.048;7.666;2023-05-14T16:41:43;2.47;;;0.60;;
49556;SDS011;35462;45.048;7.666;2023-05-14T16:56:46;0.88;;;0.40;;
49556;SDS011;35462;45.048;7.666;2023-05-14T17:11:51;0.98;;;0.30;;
49556;SDS011;35462;45.048;7.666;2023-05-14T17:26:54;1.13;;;0.52;;
49556;SDS011;35462;45.048;7.666;2023-05-14T17:41:58;0.80;;;0.40;;
49556;SDS011;35462;45.048;7.666;2023-05-14T17:57:02;1.95;;;0.75;;
49556;SDS011;35462;45.048;7.666;2023-05-14T18:12:07;2.55;;;0.30;;
49556;SDS011;35462;45.048;7.666;2023-05-14T18:27:11;1.48;;;0.40;;
49556;SDS011;35462;45.048;7.666;2023-05-14T18:42:15;1.65;;;0.47;;
49556;SDS011;35462;45.048;7.666;2023-05-14T18:57:21;2.28;;;0.47;;
49556;SDS011;35462;45.048;7.666;2023-05-14T19:12:25;1.80;;;0.52;;
49556;SDS011;35462;45.048;7.666;2023-05-14T19:27:29;1.90;;;1.00;;
49556;SDS011;35462;45.048;7.666;2023-05-14T19:42:33;2.35;;;0.90;;
49556;SDS011;35462;45.048;7.666;2023-05-14T19:57:37;2.67;;;0.75;;
49556;SDS011;35462;45.048;7.666;2023-05-14T20:12:41;2.22;;;0.80;;
49556;SDS011;35462;45.048;7.666;2023-05-14T20:27:45;4.90;;;1.83;;
49556;SDS011;35462;45.048;7.666;2023-05-14T20:42:49;2.25;;;0.98;;
49556;SDS011;35462;45.048;7.666;2023-05-14T20:57:53;2.13;;;0.93;;
49556;SDS011;35462;45.048;7.666;2023-05-14T21:12:57;2.22;;;0.90;;
49556;SDS011;35462;45.048;7.666;2023-05-14T21:28:01;1.80;;;1.25;;
49556;SDS011;35462;45.048;7.666;2023-05-14T21:43:05;2.60;;;0.80;;
49556;SDS011;35462;45.048;7.666;2023-05-14T21:58:09;3.45;;;1.20;;
49556;SDS011;35462;45.048;7.666;2023-05-14T22:13:13;2.67;;;1.58;;
49556;SDS011;35462;45.048;7.666;2023-05-14T22:28:19;2.25;;;1.52;;
49556;SDS011;35462;45.048;7.666;2023-05-14T22:43:23;2.15;;;0.70;;
49556;SDS011;35462;45.048;7.666;2023-05-14T22:58:31;2.80;;;0.90;;
49556;SDS011;35462;45.048;7.666;2023-05-14T23:13:34;4.32;;;1.40;;
49556;SDS011;35462;45.048;7.666;2023-05-14T23:28:38;2.58;;;1.10;;
49556;SDS011;35462;45.048;7.666;2023-05-14T23:43:42;3.83;;;1.90;;
49556;SDS011;35462;45.048;7.666;2023-05-14T23:58:46;1.95;;;1.42;;
